Terminal Aerodrome Forecast
Issued by NWS Detroit/Pontiac, MI

Home | Current Version | Previous Version | Text Only | Print | Product List | Glossary On
Versions: 1 2 3 4 5 6 7 8 9 10 11 12 13 14 15 16 17 18 19 20
000
FTUS43 KDTX 102337
TAFFNT
TAF
KFNT 102337Z 1100/1124 23006KT P6SM SCT035 OVC150
     FM110700 21005KT 3SM -SN BKN025 OVC040
     FM111100 16008KT 2SM -SN OVC015
     FM111600 16010KT 3/4SM -SN OVC010
     FM112000 16010KT 1/2SM SN OVC006=

USA.gov is the U.S. government's official web portal to all federal, state and local government web resources and services.